In Rescue
 
Open Full Screen Window  High Contrast Mode
Wind Gusting 00 knots
09
November 14, 2019 1:45 PM CST
Weather Information
Wind Direction
  230 °
Wind Speed
  09 kt (10 mph)
Wind Gust
  00 kt (0 mph)
Altimeter
30.17 in
Visibility
10 SM
Temperature
-01° C
30° F
Dewpoint
-09° C
16° F
Humidity
55%
1hr Rain Fall
00.00 in.
24hr Rain Fall
00.00 in.
Sky Condition
Overcast @ 5,500 ft
VFR

METAR KCBG 141945Z AUTO 23009KT 10SM OVC055 M01/M09 A3017 RMK AO2

FAA Disclaimer: The data displayed is for advisory purposes only and is not to be used for flight planning or operations.